Time;durP1;ratioP1;P1;durP2;ratioP2;P2;SDS_P1;SDS_P2;PMS_P1;PMS_P2;Temp;Humidity;BMP_temperature;BMP_pressure;BME280_temperature;BME280_humidity;BME280_pressure;Samples;Min_cycle;Max_cycle;Signal;HPM_P1;HPM_P2
2022/11/16 00:01:55;;;;;;;;;9.00;6.75;;;;;10.83;87.15;99352.44;5012847;28;45480;-94
2022/11/16 00:04:20;;;;;;;;;5.25;4.50;;;;;11.20;87.34;99413.31;5013158;28;48484;-91
2022/11/16 00:06:48;;;;;;;;;3.75;3.00;;;;;10.93;87.47;99353.41;5013859;28;45421;-92
2022/11/16 00:09:24;;;;;;;;;4.25;4.00;;;;;11.01;87.54;99375.41;5003405;28;45360;-94
2022/11/16 00:12:01;;;;;;;;;6.00;4.75;;;;;11.01;86.83;99385.94;4993500;28;45518;-93
2022/11/16 00:14:28;;;;;;;;;4.50;3.75;;;;;11.18;87.42;99429.09;4991147;28;47101;-89
2022/11/16 00:16:54;;;;;;;;;4.25;4.25;;;;;11.32;87.27;99437.97;5008021;28;45471;-89
2022/11/16 00:19:20;;;;;;;;;5.25;4.50;;;;;11.27;87.30;99431.78;4993040;28;45372;-90
2022/11/16 00:21:46;;;;;;;;;5.00;3.00;;;;;11.05;87.82;99393.00;5011899;28;45687;-89
2022/11/16 00:24:13;;;;;;;;;3.25;2.75;;;;;10.96;87.64;99382.38;4997895;28;45557;-91
2022/11/16 00:26:39;;;;;;;;;1.50;1.50;;;;;11.01;87.49;99396.44;4996661;28;45593;-91
2022/11/16 00:29:04;;;;;;;;;4.25;4.00;;;;;11.33;87.31;99457.31;4997216;28;45734;-92
2022/11/16 00:31:29;;;;;;;;;3.50;2.50;;;;;11.18;87.56;99422.91;4997796;28;45459;-93
2022/11/16 00:33:55;;;;;;;;;3.25;2.00;;;;;10.98;87.38;99399.91;4997614;28;47120;-93
2022/11/16 00:36:20;;;;;;;;;3.00;1.75;;;;;11.04;87.39;99407.00;4997137;28;45682;-93
2022/11/16 00:38:45;;;;;;;;;2.25;2.00;;;;;10.77;87.50;99371.66;5014141;28;45415;-92
2022/11/16 00:41:11;;;;;;;;;1.00;1.00;;;;;10.81;87.14;99383.97;4997763;28;45772;-93
2022/11/16 00:43:36;;;;;;;;;1.00;1.00;;;;;10.82;87.10;99372.56;4998586;28;45567;-92
2022/11/16 00:46:02;;;;;;;;;1.75;1.75;;;;;11.50;87.30;99502.19;4997112;28;45713;-92
2022/11/16 00:48:27;;;;;;;;;1.25;1.00;;;;;10.79;87.29;99372.56;4997676;28;45566;-92
2022/11/16 00:50:52;;;;;;;;;5.00;3.00;;;;;11.20;86.96;99435.22;4997472;28;45730;-92
2022/11/16 00:53:19;;;;;;;;;3.25;1.75;;;;;10.62;86.81;99339.06;4998799;28;46585;-92
2022/11/16 00:55:46;;;;;;;;;2.25;2.25;;;;;10.57;87.15;99333.75;4998673;28;45259;-92
2022/11/16 00:58:12;;;;;;;;;2.50;2.25;;;;;11.12;86.94;99431.63;4998260;28;45844;-93
2022/11/16 01:00:38;;;;;;;;;2.25;1.00;;;;;10.57;86.97;99342.50;4997037;28;45499;-92
2022/11/16 01:03:04;;;;;;;;;1.00;1.00;;;;;11.11;87.48;99440.38;4997323;28;47443;-92
2022/11/16 01:05:29;;;;;;;;;1.00;1.00;;;;;10.61;87.07;99346.06;4997984;28;45474;-92
2022/11/16 01:07:56;;;;;;;;;1.25;1.00;;;;;10.75;87.04;99365.50;4998669;28;45389;-93
2022/11/16 01:10:23;;;;;;;;;1.50;1.00;;;;;10.76;87.14;99326.97;4997886;28;45929;-93
2022/11/16 01:12:50;;;;;;;;;3.00;1.75;;;;;11.46;86.61;99451.28;4998049;28;46663;-92
2022/11/16 01:15:17;;;;;;;;;3.00;2.00;;;;;11.42;86.45;99445.97;4998096;28;45745;-94
2022/11/16 01:17:43;;;;;;;;;1.75;1.00;;;;;11.72;86.76;99492.75;4998112;28;45399;-93
2022/11/16 01:20:15;;;;;;;;;2.00;1.00;;;;;11.10;86.81;99397.44;4997927;28;45859;-92
2022/11/16 01:22:41;;;;;;;;;2.00;2.00;;;;;10.79;86.27;99348.03;4996829;28;48297;-94
2022/11/16 01:25:08;;;;;;;;;2.00;2.00;;;;;10.61;86.72;99330.31;4997723;28;46102;-92
2022/11/16 01:27:33;;;;;;;;;2.25;1.50;;;;;11.29;86.95;99444.97;4993973;28;45396;-93
2022/11/16 01:30:04;;;;;;;;;1.00;1.00;;;;;11.03;86.68;99426.25;4995461;28;45666;-91
2022/11/16 01:32:30;;;;;;;;;1.25;1.25;;;;;10.64;86.63;99343.47;4992902;28;47320;-92
2022/11/16 01:34:55;;;;;;;;;2.00;1.00;;;;;10.95;86.61;99393.75;4993737;28;45495;-91
2022/11/16 01:37:21;;;;;;;;;2.00;2.00;;;;;11.21;87.07;99450.13;4994529;28;45404;-92
2022/11/16 01:39:49;;;;;;;;;1.00;1.00;;;;;11.23;87.07;99448.44;4978548;28;45467;-92
2022/11/16 01:42:22;;;;;;;;;1.00;1.00;;;;;10.64;86.49;99348.75;4997865;28;45901;-92
2022/11/16 01:44:47;;;;;;;;;2.50;1.00;;;;;11.48;86.65;99504.81;4997332;28;45894;-92
2022/11/16 01:47:15;;;;;;;;;2.00;1.00;;;;;11.45;86.66;99503.88;4996370;28;45459;-93
2022/11/16 01:49:44;;;;;;;;;1.00;1.00;;;;;10.85;86.34;99405.91;4997434;28;45657;-93
2022/11/16 01:52:15;;;;;;;;;0.50;0.50;;;;;10.70;86.77;99369.81;4997556;28;46263;-92
2022/11/16 01:54:44;;;;;;;;;2.00;1.00;;;;;10.66;86.55;99373.28;4995480;28;45862;-93
2022/11/16 01:57:14;;;;;;;;;2.25;1.00;;;;;10.87;86.62;99417.31;4996034;28;45573;-92
2022/11/16 01:59:42;;;;;;;;;3.00;2.00;;;;;11.33;86.70;99500.25;4995584;28;45728;-92
2022/11/16 02:02:07;;;;;;;;;2.00;1.00;;;;;10.97;86.55;99436.72;4997148;28;46966;-92
2022/11/16 02:04:33;;;;;;;;;2.25;1.25;;;;;10.83;86.29;99420.75;4995971;28;45495;-92
2022/11/16 02:09:52;;;;;;;;;1.00;1.00;;;;;11.32;86.72;99495.84;4997042;28;45359;-92
2022/11/16 02:11:03;;;;;;;;;1.25;1.00;;;;;10.89;86.30;99430.50;5017235;28;45560;-93
2022/11/16 02:13:58;;;;;;;;;1.50;1.50;;;;;11.27;86.32;99504.56;5016272;28;46207;-92
2022/11/16 02:16:30;;;;;;;;;1.00;0.75;;;;;11.19;86.37;99500.97;5015518;28;45492;-92
2022/11/16 02:19:20;;;;;;;;;2.00;1.25;;;;;11.22;86.28;99499.22;5016776;28;45490;-92
2022/11/16 02:22:03;;;;;;;;;4.00;1.50;;;;;10.70;86.05;99418.88;5014303;28;45386;-93
2022/11/16 02:24:42;;;;;;;;;1.25;1.00;;;;;10.45;86.24;99373.91;5014493;28;45546;-88
2022/11/16 02:27:50;;;;;;;;;1.75;1.00;;;;;10.76;86.36;99419.81;5013688;28;45517;-88
2022/11/16 02:30:18;;;;;;;;;0.00;0.00;;;;;10.85;86.19;99440.97;4994538;28;45761;-86
2022/11/16 02:32:51;;;;;;;;;1.00;1.00;;;;;10.33;86.07;99334.31;5014654;28;45462;-89
2022/11/16 02:35:29;;;;;;;;;0.75;0.50;;;;;10.82;85.68;99425.16;5015916;28;46474;-93
2022/11/16 02:38:00;;;;;;;;;2.00;1.00;;;;;10.47;86.14;99373.91;5014748;28;45846;-93
2022/11/16 02:40:30;;;;;;;;;1.00;1.00;;;;;10.86;85.78;99426.06;5015954;28;45562;-92
2022/11/16 02:43:06;;;;;;;;;1.75;0.75;;;;;10.24;85.49;99331.56;5015364;28;45583;-92
2022/11/16 02:45:36;;;;;;;;;1.00;1.00;;;;;10.77;85.69;99439.97;5016535;28;45480;-93
2022/11/16 02:48:18;;;;;;;;;1.25;1.25;;;;;10.71;85.45;99424.13;5015187;28;45547;-93
2022/11/16 02:50:45;;;;;;;;;2.00;2.00;;;;;10.17;85.26;99348.09;5015041;28;45505;-91
2022/11/16 02:53:10;;;;;;;;;5.75;0.00;;;;;10.14;85.45;99327.91;5015899;28;45974;-93
2022/11/16 02:55:37;;;;;;;;;1.50;0.50;;;;;10.02;85.29;99326.00;5016126;28;45537;-93
2022/11/16 02:58:05;;;;;;;;;3.00;2.00;;;;;10.05;85.34;99322.56;5015398;28;45510;-92
2022/11/16 03:00:48;;;;;;;;;1.00;0.50;;;;;10.91;85.51;99471.69;5016048;28;45567;-91
2022/11/16 03:03:27;;;;;;;;;0.00;0.00;;;;;10.96;85.50;99482.28;5017179;28;45694;-92
2022/11/16 03:06:00;;;;;;;;;2.00;1.00;;;;;10.02;85.21;99315.50;5016570;28;46501;-93
2022/11/16 03:08:33;;;;;;;;;0.00;0.00;;;;;10.93;85.42;99487.47;5016367;28;45787;-93
2022/11/16 03:13:51;;;;;;;;;1.00;1.00;;;;;9.93;85.33;99304.88;5016494;28;45523;-93
2022/11/16 03:16:23;;;;;;;;;2.25;1.50;;;;;10.50;85.60;99413.34;5014738;28;48068;-92
2022/11/16 03:18:51;;;;;;;;;0.50;0.50;;;;;10.33;85.34;99381.59;5031818;28;45800;-92
2022/11/16 03:21:20;;;;;;;;;1.50;1.50;;;;;10.39;85.45;99402.69;5015578;28;45530;-93
2022/11/16 03:23:46;;;;;;;;;1.50;1.25;;;;;10.46;85.55;99401.91;5017099;28;45390;-93
2022/11/16 03:26:15;;;;;;;;;2.00;2.00;;;;;10.40;85.42;99391.34;5016103;28;45978;-93
2022/11/16 03:28:58;;;;;;;;;0.75;0.75;;;;;10.39;85.33;99399.19;5016748;28;45992;-92
2022/11/16 03:31:32;;;;;;;;;0.00;0.00;;;;;9.91;85.58;99305.75;5015659;28;45372;-92
2022/11/16 03:34:04;;;;;;;;;0.75;0.75;;;;;10.02;85.60;99314.63;5017877;28;45799;-93
2022/11/16 03:36:34;;;;;;;;;3.50;2.00;;;;;9.98;85.19;99302.31;5017565;28;47147;-92
2022/11/16 03:39:10;;;;;;;;;1.00;1.00;;;;;10.40;85.58;99377.31;5012740;28;45804;-92
2022/11/16 03:41:40;;;;;;;;;1.00;1.00;;;;;10.08;85.39;99312.09;5012314;28;45548;-92
2022/11/16 03:44:08;;;;;;;;;2.00;2.00;;;;;10.46;85.53;99364.28;5011065;28;45694;-92
2022/11/16 03:46:34;;;;;;;;;1.75;1.00;;;;;10.02;85.41;99276.16;5010705;28;47692;-91
2022/11/16 03:49:00;;;;;;;;;4.00;2.00;;;;;10.32;85.34;99329.94;5011463;28;45479;-88
2022/11/16 03:51:27;;;;;;;;;1.00;1.00;;;;;10.68;85.34;99376.78;5012243;28;46155;-88
2022/11/16 03:53:52;;;;;;;;;1.25;0.50;;;;;10.43;84.80;99337.94;5012257;28;45488;-90
2022/11/16 03:56:18;;;;;;;;;1.75;1.00;;;;;10.80;85.10;99411.13;5015437;28;45476;-89
2022/11/16 03:58:43;;;;;;;;;1.00;1.00;;;;;10.94;85.09;99436.69;5014465;28;45423;-91
2022/11/16 04:01:08;;;;;;;;;2.00;2.00;;;;;10.42;84.91;99362.47;5014079;28;45905;-89
2022/11/16 04:03:34;;;;;;;;;2.00;2.00;;;;;9.90;85.13;99269.84;5015627;28;46068;-89
2022/11/16 04:25:25;;;;;;;;;2.00;1.00;;;;;9.98;85.74;99265.59;5016192;28;45583;-91
2022/11/16 04:38:48;;;;;;;;;1.00;1.00;;;;;10.77;85.26;99355.88;5019414;28;45366;-89
2022/11/16 04:43:57;;;;;;;;;1.00;1.00;;;;;10.55;85.56;99333.75;5015763;28;45829;-87
2022/11/16 04:49:07;;;;;;;;;1.50;1.50;;;;;10.76;85.59;99351.50;5015158;28;45830;-87
2022/11/16 04:51:32;;;;;;;;;1.00;0.00;;;;;10.38;85.41;99280.09;5015958;28;45688;-89
2022/11/16 04:53:58;;;;;;;;;0.00;0.00;;;;;10.56;85.76;99313.59;5015015;28;45501;-87
2022/11/16 04:56:23;;;;;;;;;1.00;1.00;;;;;10.38;85.67;99288.00;5016632;28;45433;-91
2022/11/16 04:58:49;;;;;;;;;2.00;1.50;;;;;10.54;85.79;99315.31;5017306;28;45484;-90
2022/11/16 05:01:14;;;;;;;;;1.75;1.00;;;;;10.92;85.81;99389.34;5015873;28;45482;-91
2022/11/16 05:03:39;;;;;;;;;1.75;1.75;;;;;10.16;85.43;99239.56;5016464;28;45417;-90
2022/11/16 05:06:05;;;;;;;;;2.00;2.00;;;;;10.59;85.55;99322.41;5016463;28;45476;-92
2022/11/16 05:08:30;;;;;;;;;2.00;1.00;;;;;10.33;85.77;99282.69;5010844;28;48568;-91
2022/11/16 05:10:55;;;;;;;;;1.00;1.00;;;;;10.45;85.88;99315.22;4997200;28;45826;-91
2022/11/16 05:13:21;;;;;;;;;2.00;1.00;;;;;10.66;85.85;99351.38;4996487;28;45551;-91
2022/11/16 05:15:46;;;;;;;;;3.75;2.75;;;;;10.46;86.32;99309.09;4995683;28;45402;-93
2022/11/16 05:18:12;;;;;;;;;2.00;1.50;;;;;10.48;86.36;99310.00;4996377;28;46869;-92
2022/11/16 05:26:05;;;;;;;;;2.00;1.00;;;;;10.64;86.29;99311.03;4997766;28;45395;-92
2022/11/16 05:28:30;;;;;;;;;2.25;2.00;;;;;10.53;86.45;99280.28;4997656;28;45348;-90
2022/11/16 05:30:55;;;;;;;;;3.25;3.25;;;;;10.50;86.27;99268.88;4997407;28;45436;-88
2022/11/16 05:33:21;;;;;;;;;1.25;1.25;;;;;10.98;86.08;99336.81;4996355;28;45759;-89
2022/11/16 05:35:49;;;;;;;;;2.50;2.00;;;;;10.43;86.32;99233.78;4994600;28;45413;-90
2022/11/16 05:38:15;;;;;;;;;2.50;2.00;;;;;10.69;85.87;99275.19;4994554;28;47399;-92
2022/11/16 05:40:40;;;;;;;;;2.00;2.00;;;;;10.46;85.87;99244.31;4997410;28;45459;-91
2022/11/16 05:43:05;;;;;;;;;2.75;2.75;;;;;10.32;85.71;99231.03;4997538;28;45556;-91
2022/11/16 05:45:31;;;;;;;;;3.75;3.25;;;;;10.27;85.83;99239.72;4995240;28;45717;-92
2022/11/16 05:47:56;;;;;;;;;2.00;1.25;;;;;10.41;85.96;99250.41;4996837;28;45439;-92
2022/11/16 05:50:21;;;;;;;;;1.75;1.00;;;;;10.41;85.75;99260.91;4997673;28;45511;-90
2022/11/16 05:52:47;;;;;;;;;2.00;1.75;;;;;10.61;86.21;99290.00;4997343;28;45433;-92
2022/11/16 05:55:12;;;;;;;;;2.50;2.00;;;;;10.24;86.29;99240.56;4996205;28;45642;-91
2022/11/16 05:57:38;;;;;;;;;4.00;3.00;;;;;10.24;86.33;99258.94;4996832;28;45489;-91
2022/11/16 06:00:03;;;;;;;;;5.00;4.00;;;;;10.68;86.24;99334.75;4995606;28;45560;-90
2022/11/16 06:02:31;;;;;;;;;4.00;2.50;;;;;10.03;86.69;99233.28;4994994;28;45511;-89
2022/11/16 06:04:57;;;;;;;;;1.50;1.50;;;;;10.61;86.59;99332.06;4995279;28;45855;-87
2022/11/16 06:07:22;;;;;;;;;1.00;0.50;;;;;10.55;86.99;99327.59;4994278;28;45837;-88
2022/11/16 06:09:47;;;;;;;;;3.25;3.25;;;;;10.39;86.93;99308.13;5009821;28;45603;-87
2022/11/16 06:12:13;;;;;;;;;2.25;2.25;;;;;10.02;86.55;99235.91;5013810;28;45889;-86
2022/11/16 06:14:38;;;;;;;;;4.00;3.50;;;;;10.14;86.65;99274.53;5011763;28;45647;-86
2022/11/16 06:17:03;;;;;;;;;3.50;3.00;;;;;10.09;86.25;99267.47;5011806;28;45714;-86
2022/11/16 06:19:29;;;;;;;;;3.50;3.50;;;;;10.27;86.76;99297.50;5013174;28;45544;-86
2022/11/16 06:21:55;;;;;;;;;5.00;4.00;;;;;10.49;86.99;99343.28;5011823;28;45518;-86
2022/11/16 06:24:20;;;;;;;;;3.50;3.00;;;;;9.96;86.85;99255.06;5013456;28;45445;-86
2022/11/16 06:26:46;;;;;;;;;3.75;3.00;;;;;10.29;86.98;99304.50;5013098;28;45628;-86
2022/11/16 06:29:11;;;;;;;;;2.75;2.50;;;;;10.51;86.72;99338.94;5013647;28;45540;-85
2022/11/16 06:31:36;;;;;;;;;1.75;1.50;;;;;10.28;86.81;99300.13;5012196;28;45755;-86
2022/11/16 06:34:02;;;;;;;;;2.25;2.00;;;;;10.31;86.80;99305.44;5013203;28;45398;-86
2022/11/16 06:36:28;;;;;;;;;3.00;3.00;;;;;10.85;86.71;99398.91;5013380;28;45833;-86
2022/11/16 06:38:53;;;;;;;;;3.00;3.00;;;;;10.17;86.67;99274.56;5011422;28;45573;-86
2022/11/16 06:41:19;;;;;;;;;4.50;4.50;;;;;10.21;86.38;99273.75;5014521;28;45371;-87
2022/11/16 06:43:45;;;;;;;;;3.50;3.25;;;;;10.60;86.85;99331.16;5012117;28;45534;-86
2022/11/16 06:46:10;;;;;;;;;4.25;4.00;;;;;10.62;86.67;99339.94;5010830;28;48264;-86
2022/11/16 06:48:36;;;;;;;;;4.00;4.00;;;;;10.05;86.72;99228.06;5013179;28;45514;-86
2022/11/16 06:51:01;;;;;;;;;4.00;4.00;;;;;10.64;86.57;99325.09;5012821;28;46307;-86
2022/11/16 06:53:27;;;;;;;;;4.75;4.25;;;;;10.19;86.42;99243.97;5005124;28;45651;-87
2022/11/16 06:55:52;;;;;;;;;6.50;5.00;;;;;11.06;86.38;99400.00;5010601;28;45824;-88
2022/11/16 06:58:17;;;;;;;;;4.50;3.50;;;;;10.17;86.53;99228.19;5011720;28;45743;-86
2022/11/16 07:00:43;;;;;;;;;4.75;3.50;;;;;10.55;86.83;99285.56;4992568;28;45490;-86
2022/11/16 07:03:08;;;;;;;;;2.50;2.00;;;;;10.30;86.60;99226.66;4991762;28;45358;-87
2022/11/16 07:05:38;;;;;;;;;2.75;2.50;;;;;10.37;86.65;99236.34;5008651;28;47119;-89
2022/11/16 07:08:04;;;;;;;;;6.00;6.00;;;;;10.52;86.29;99256.63;5009858;28;45966;-87
2022/11/16 07:10:29;;;;;;;;;4.00;4.00;;;;;10.64;86.27;99269.91;4993811;28;45441;-88
2022/11/16 07:12:54;;;;;;;;;3.00;3.00;;;;;10.44;86.17;99230.31;4993353;28;45711;-89
2022/11/16 07:15:20;;;;;;;;;4.00;3.00;;;;;11.33;86.51;99383.66;5005751;28;46259;-87
2022/11/16 07:17:45;;;;;;;;;6.00;5.00;;;;;10.46;86.27;99235.56;5012865;28;45493;-88
2022/11/16 07:20:10;;;;;;;;;7.25;5.50;;;;;10.82;86.25;99296.38;5001490;28;45404;-91
2022/11/16 07:22:36;;;;;;;;;3.25;2.50;;;;;10.87;86.47;99299.03;4993372;28;45443;-90
2022/11/16 07:25:01;;;;;;;;;7.25;4.50;;;;;10.76;86.03;99272.66;4992463;28;46488;-90
2022/11/16 07:27:27;;;;;;;;;3.50;3.50;;;;;10.58;86.43;99248.81;4990632;28;45677;-88
2022/11/16 07:29:52;;;;;;;;;4.25;3.75;;;;;10.66;86.50;99251.53;4990888;28;45494;-88
2022/11/16 07:32:17;;;;;;;;;2.25;2.25;;;;;10.94;86.62;99305.25;4991570;28;45296;-92
2022/11/16 07:34:43;;;;;;;;;4.00;3.00;;;;;10.79;86.48;99285.84;4990665;28;47950;-88
2022/11/16 07:37:08;;;;;;;;;6.00;4.75;;;;;10.68;86.39;99240.16;4992209;28;45486;-92
2022/11/16 07:39:33;;;;;;;;;4.75;3.75;;;;;11.19;86.39;99330.91;4992441;28;45440;-87
2022/11/16 07:41:59;;;;;;;;;3.75;3.25;;;;;11.36;86.72;99337.19;4992405;28;45424;-85
2022/11/16 07:44:24;;;;;;;;;4.75;4.50;;;;;11.19;86.28;99303.75;4992273;28;45797;-90
2022/11/16 07:46:49;;;;;;;;;4.75;4.00;;;;;11.51;86.14;99349.59;4991071;28;45633;-87
2022/11/16 07:49:17;;;;;;;;;3.75;3.50;;;;;11.55;86.23;99337.34;4993348;28;45504;-89
2022/11/16 07:51:43;;;;;;;;;5.25;3.75;;;;;11.62;86.20;99350.59;5010876;28;45653;-89
2022/11/16 07:54:13;;;;;;;;;6.00;5.75;;;;;11.96;86.33;99405.25;5007054;28;48245;-92
2022/11/16 07:56:38;;;;;;;;;4.25;4.00;;;;;11.66;86.44;99351.47;4992037;28;45765;-87
2022/11/16 07:59:04;;;;;;;;;4.00;3.00;;;;;11.02;86.10;99251.88;4992002;28;45516;-88
2022/11/16 08:01:31;;;;;;;;;2.50;2.50;;;;;11.66;86.28;99345.31;4989896;28;45479;-91
2022/11/16 08:04:02;;;;;;;;;4.25;3.00;;;;;11.75;85.95;99361.19;4991951;28;45500;-92
2022/11/16 08:06:30;;;;;;;;;3.75;3.50;;;;;11.71;85.97;99339.22;4992454;28;46099;-90
2022/11/16 08:08:56;;;;;;;;;3.50;2.50;;;;;11.31;86.26;99281.03;4998735;28;45496;-88
2022/11/16 08:11:24;;;;;;;;;3.75;3.00;;;;;11.07;86.11;99222.97;5011604;28;45467;-89
2022/11/16 08:13:49;;;;;;;;;3.00;3.00;;;;;11.56;86.15;99291.75;5009598;28;47166;-88
2022/11/16 08:16:18;;;;;;;;;3.00;3.00;;;;;11.20;85.73;99232.75;5010100;28;45547;-87
2022/11/16 08:18:44;;;;;;;;;4.00;4.00;;;;;11.37;86.24;99270.56;5007035;28;45534;-90
2022/11/16 08:21:12;;;;;;;;;5.25;3.50;;;;;11.84;86.08;99338.47;4994643;28;45690;-93
2022/11/16 08:23:41;;;;;;;;;3.00;2.00;;;;;11.33;86.36;99236.34;4990880;28;46135;-90
2022/11/16 08:26:09;;;;;;;;;8.75;5.00;;;;;11.91;86.06;99334.13;4989684;28;45811;-91
2022/11/16 08:28:35;;;;;;;;;3.50;3.25;;;;;11.87;85.86;99338.50;4992306;28;45494;-86
2022/11/16 08:31:08;;;;;;;;;4.50;4.00;;;;;11.38;85.98;99226.75;4989670;28;45467;-89
2022/11/16 08:33:33;;;;;;;;;4.50;3.00;;;;;11.54;86.11;99252.28;4991842;28;46465;-92
2022/11/16 08:36:05;;;;;;;;;3.50;3.00;;;;;11.98;85.92;99328.03;4991970;28;45516;-92
2022/11/16 08:38:31;;;;;;;;;5.25;4.00;;;;;12.22;85.52;99365.94;4991364;28;45372;-87
2022/11/16 08:40:56;;;;;;;;;3.00;2.50;;;;;11.88;85.57;99310.44;4992247;28;45440;-86
2022/11/16 08:43:22;;;;;;;;;2.25;2.00;;;;;12.28;85.23;99358.94;4993990;28;47740;-86
2022/11/16 08:45:48;;;;;;;;;7.00;5.25;;;;;11.66;85.35;99251.47;4998700;28;45607;-90
2022/11/16 08:48:14;;;;;;;;;3.50;3.50;;;;;12.34;85.45;99348.44;5013871;28;45547;-87
2022/11/16 08:50:39;;;;;;;;;4.50;3.75;;;;;12.42;85.60;99358.13;5018701;28;45627;-86
2022/11/16 08:53:04;;;;;;;;;2.75;2.75;;;;;11.87;85.07;99254.28;4993886;28;45585;-86
2022/11/16 08:55:30;;;;;;;;;3.25;2.00;;;;;12.41;85.17;99349.31;4994433;28;45553;-87
2022/11/16 08:57:55;;;;;;;;;3.00;3.00;;;;;12.19;85.50;99298.31;4994286;28;45385;-87
2022/11/16 09:00:21;;;;;;;;;2.25;1.25;;;;;12.49;85.30;99329.16;4993265;28;45536;-87
2022/11/16 09:02:46;;;;;;;;;1.50;1.00;;;;;12.29;84.94;99296.59;4994241;28;45496;-92
2022/11/16 09:05:11;;;;;;;;;3.00;3.00;;;;;11.98;85.42;99245.53;4992736;28;45854;-90
2022/11/16 09:07:38;;;;;;;;;3.75;2.75;;;;;12.51;85.20;99330.06;4993106;28;45615;-89
2022/11/16 09:10:05;;;;;;;;;4.75;3.00;;;;;12.23;84.62;99272.88;5011502;28;45369;-89
2022/11/16 09:12:32;;;;;;;;;5.50;3.00;;;;;11.97;84.94;99217.44;5014866;28;47528;-89
2022/11/16 09:14:57;;;;;;;;;2.00;2.00;;;;;12.04;84.80;99235.03;5011221;28;46345;-90
2022/11/16 09:17:22;;;;;;;;;3.50;3.50;;;;;12.61;84.75;99320.41;5014058;28;45607;-89
2022/11/16 09:19:48;;;;;;;;;4.00;2.00;;;;;12.67;84.32;99330.13;5012514;28;45372;-89
2022/11/16 09:22:13;;;;;;;;;3.00;2.00;;;;;12.10;84.59;99233.28;5012975;28;47914;-90
2022/11/16 09:24:39;;;;;;;;;4.25;3.50;;;;;12.63;84.85;99329.22;5012548;28;45903;-92
2022/11/16 09:27:05;;;;;;;;;5.50;3.00;;;;;12.13;84.36;99249.13;4993574;28;45432;-87
2022/11/16 09:29:31;;;;;;;;;4.25;3.75;;;;;12.97;84.26;99376.78;4994438;28;45585;-92
2022/11/16 09:31:57;;;;;;;;;3.75;3.75;;;;;12.26;84.77;99259.69;4993268;28;48268;-89
2022/11/16 09:34:23;;;;;;;;;2.00;2.00;;;;;12.21;84.74;99251.75;4994928;28;45331;-87
2022/11/16 09:36:48;;;;;;;;;2.50;1.00;;;;;12.71;84.38;99305.50;5010194;28;45562;-92
2022/11/16 09:39:14;;;;;;;;;3.50;2.00;;;;;12.81;84.91;99313.47;5013408;28;45376;-90
2022/11/16 09:41:49;;;;;;;;;2.75;2.75;;;;;12.28;84.28;99203.50;4998796;28;45509;-91
2022/11/16 09:44:36;;;;;;;;;3.00;2.00;;;;;13.28;84.66;99368.09;4996135;28;46053;-86
2022/11/16 09:47:06;;;;;;;;;5.00;3.00;;;;;12.39;83.79;99201.78;5003661;28;45535;-85
2022/11/16 09:49:41;;;;;;;;;2.75;1.50;;;;;13.05;84.08;99291.53;5007339;28;44780;-89
2022/11/16 09:52:32;;;;;;;;;2.00;2.00;;;;;13.00;84.00;99260.75;5007654;28;46613;-88
2022/11/16 09:55:00;;;;;;;;;2.00;2.00;;;;;13.30;83.65;99295.13;5010627;28;46068;-87
2022/11/16 09:57:32;;;;;;;;;4.00;3.00;;;;;12.82;83.16;99198.34;5010654;28;45404;-88
2022/11/16 10:00:03;;;;;;;;;4.75;3.00;;;;;13.42;83.47;99287.19;5005124;28;45463;-85
2022/11/16 10:02:43;;;;;;;;;4.25;3.25;;;;;12.99;83.12;99198.34;5000473;28;45374;-89
2022/11/16 10:05:26;;;;;;;;;3.00;2.00;;;;;13.09;82.85;99202.72;5002112;28;46031;-86
2022/11/16 10:08:08;;;;;;;;;3.75;3.25;;;;;13.36;82.76;99229.13;4995691;28;45603;-87
2022/11/16 10:10:38;;;;;;;;;3.00;2.50;;;;;13.28;82.23;99193.06;5013887;28;45515;-90
2022/11/16 10:13:18;;;;;;;;;2.25;1.75;;;;;14.17;82.73;99346.94;5015347;28;45500;-82
2022/11/16 10:15:47;;;;;;;;;3.00;2.00;;;;;14.18;82.60;99338.09;5005338;28;45857;-80
2022/11/16 10:18:33;;;;;;;;;2.25;2.25;;;;;14.17;81.90;99344.28;4991576;28;46036;-80
2022/11/16 10:21:20;;;;;;;;;2.00;2.00;;;;;14.22;81.96;99344.28;4992386;28;45561;-80
2022/11/16 10:23:55;;;;;;;;;3.00;1.75;;;;;14.25;81.58;99362.78;4992692;28;45900;-80
2022/11/16 10:26:41;;;;;;;;;2.00;1.00;;;;;14.28;81.34;99360.09;4993140;28;45485;-80
2022/11/16 10:29:21;;;;;;;;;3.00;2.25;;;;;14.36;81.67;99353.91;4973416;28;45578;-80
2022/11/16 10:31:52;;;;;;;;;1.00;1.00;;;;;14.48;81.36;99363.59;4997561;28;45764;-80
2022/11/16 10:34:39;;;;;;;;;2.00;1.50;;;;;14.43;80.53;99337.19;4993162;28;45521;-80
2022/11/16 10:37:07;;;;;;;;;1.25;1.00;;;;;14.52;79.53;99364.47;4991974;28;45834;-79
2022/11/16 10:39:35;;;;;;;;;2.00;1.00;;;;;14.57;79.93;99362.69;4992693;28;45498;-79
2022/11/16 10:42:04;;;;;;;;;2.00;1.00;;;;;14.59;79.89;99368.88;4993016;28;45873;-82
2022/11/16 10:45:16;;;;;;;;;3.00;1.00;;;;;14.50;79.40;99342.47;4992333;28;46225;-80
2022/11/16 10:47:52;;;;;;;;;1.00;0.50;;;;;14.46;79.38;99328.34;5004991;28;45420;-83
2022/11/16 10:50:46;;;;;;;;;3.00;2.00;;;;;14.62;80.00;99350.34;5011238;28;45729;-84
2022/11/16 10:53:27;;;;;;;;;3.00;2.25;;;;;14.55;79.00;99322.16;5012980;28;45467;-81
2022/11/16 10:56:21;;;;;;;;;2.00;1.00;;;;;14.73;78.56;99335.31;5012094;28;46623;-82
2022/11/16 10:59:00;;;;;;;;;1.00;1.00;;;;;14.78;78.42;99332.63;5011651;28;45911;-82
2022/11/16 11:01:42;;;;;;;;;1.00;1.00;;;;;14.62;78.19;99308.03;5010343;28;45438;-82
2022/11/16 11:04:30;;;;;;;;;2.50;2.25;;;;;14.70;78.75;99330.03;5009641;28;45593;-80
2022/11/16 11:06:56;;;;;;;;;1.75;1.00;;;;;14.71;78.95;99324.72;4991723;28;45785;-81
2022/11/16 11:09:31;;;;;;;;;2.00;1.00;;;;;14.77;78.68;99322.94;5005529;28;45711;-82
2022/11/16 11:15:10;;;;;;;;;2.00;2.00;;;;;14.90;77.38;99317.56;4991783;28;45489;-80
2022/11/16 11:17:45;;;;;;;;;2.50;2.00;;;;;14.94;77.47;99315.78;5007516;28;48771;-83
2022/11/16 11:20:14;;;;;;;;;1.75;1.50;;;;;14.98;77.69;99309.59;5002563;28;46225;-82
2022/11/16 11:22:53;;;;;;;;;3.50;1.50;;;;;14.90;77.28;99288.47;5009831;28;45379;-82
2022/11/16 11:25:22;;;;;;;;;3.00;1.00;;;;;15.10;77.60;99308.63;5002345;28;45871;-83
2022/11/16 11:27:49;;;;;;;;;1.00;1.00;;;;;14.99;76.60;99282.25;5004037;28;45528;-82
2022/11/16 11:30:19;;;;;;;;;1.25;1.00;;;;;15.11;75.98;99302.44;5003146;28;45383;-83
2022/11/16 11:32:46;;;;;;;;;2.75;2.00;;;;;15.10;76.79;99290.97;4990867;28;45508;-82
2022/11/16 11:35:23;;;;;;;;;2.00;2.00;;;;;14.87;76.95;99255.88;4992047;28;45509;-81
2022/11/16 11:37:53;;;;;;;;;2.25;2.00;;;;;15.00;76.09;99281.34;4991757;28;46119;-83
2022/11/16 11:40:24;;;;;;;;;3.25;2.00;;;;;15.04;76.38;99298.09;4992589;28;45927;-82
2022/11/16 11:43:02;;;;;;;;;1.50;1.25;;;;;15.06;76.32;99299.81;4991364;28;45326;-80
2022/11/16 11:45:53;;;;;;;;;2.00;1.00;;;;;15.12;75.41;99301.56;5011102;28;45583;-81
2022/11/16 11:48:26;;;;;;;;;2.00;2.00;;;;;15.14;75.00;99292.72;5011439;28;45422;-80
2022/11/16 11:50:56;;;;;;;;;3.75;3.00;;;;;15.06;75.47;99275.13;5009410;28;45393;-81
2022/11/16 11:53:57;;;;;;;;;3.00;2.00;;;;;15.17;74.48;99289.16;5026800;28;45743;-81
2022/11/16 11:56:23;;;;;;;;;2.00;2.00;;;;;15.08;74.46;99283.97;5011386;28;45520;-81
2022/11/16 11:58:50;;;;;;;;;6.25;2.75;;;;;15.06;74.74;99278.66;5008945;28;46540;-80
2022/11/16 12:01:34;;;;;;;;;3.00;2.00;;;;;15.16;74.51;99288.28;5011067;28;45407;-83
2022/11/16 12:04:11;;;;;;;;;2.00;2.00;;;;;15.26;74.86;99281.16;5010557;28;45583;-79
2022/11/16 12:06:55;;;;;;;;;1.75;1.75;;;;;15.32;75.22;99281.13;5011075;28;45754;-80
2022/11/16 12:09:22;;;;;;;;;2.25;2.25;;;;;15.39;75.17;99274.88;4999812;28;45359;-83
2022/11/16 12:12:25;;;;;;;;;0.50;0.50;;;;;15.45;73.92;99280.13;4990125;28;45589;-80
2022/11/16 12:15:14;;;;;;;;;1.75;1.00;;;;;15.46;74.20;99273.91;5008559;28;45734;-78
2022/11/16 12:18:17;;;;;;;;;3.00;2.00;;;;;15.49;74.72;99273.91;5014643;28;45516;-78
2022/11/16 12:21:01;;;;;;;;;2.00;2.00;;;;;15.52;74.90;99267.72;5014377;28;46163;-77
2022/11/16 12:24:05;;;;;;;;;3.50;3.50;;;;;15.50;74.33;99266.84;5014908;28;45540;-78
2022/11/16 12:26:40;;;;;;;;;2.00;1.00;;;;;15.49;74.42;99260.66;5014975;28;45561;-78
2022/11/16 12:29:46;;;;;;;;;1.25;1.25;;;;;15.50;74.16;99258.91;5015081;28;45691;-78
2022/11/16 12:32:28;;;;;;;;;2.25;2.00;;;;;15.49;74.27;99263.31;5014750;28;46034;-78
2022/11/16 12:35:18;;;;;;;;;2.00;1.00;;;;;15.48;73.91;99250.09;5014280;28;45918;-78
2022/11/16 12:37:48;;;;;;;;;2.25;2.00;;;;;15.51;74.35;99238.59;5014315;28;45453;-77